Terminal Aerodrome Forecast
Issued by NWS

Home | Current Version | Previous Version | Text Only | Print | Product List | Glossary On
Versions: 1 2 3 4 5 6 7 8 9 10 11 12 13 14 15 16 17 18 19 20
000
FTUS46 KSEW 101144
TAFPAE
TAF
KPAE 101144Z 1012/1112 VRB05KT P6SM BKN005 OVC015
     FM101500 15009KT P6SM FEW008 BKN020 OVC040
     FM101800 17013G22KT 6SM -SHRA BR OVC020
     FM110300 18018G28KT P6SM -SHRA BKN025 OVC040=

USA.gov is the U.S. government's official web portal to all federal, state and local government web resources and services.